createdAt,value
2022-10-09T04:00:32.476Z,6.60
2022-10-09T04:11:37.289Z,5.60
2022-10-09T04:22:37.168Z,5.80
2022-10-09T04:33:37.042Z,4.40
2022-10-09T04:44:36.974Z,5.80
2022-10-09T04:55:36.796Z,5.50
2022-10-09T05:06:36.676Z,5.60
2022-10-09T05:17:36.638Z,4.90
2022-10-09T05:28:36.778Z,5.10
2022-10-09T05:39:36.313Z,5.00
2022-10-09T05:50:36.409Z,5.60
2022-10-09T06:01:36.213Z,5.20
2022-10-09T06:12:35.971Z,4.60
2022-10-09T06:23:35.845Z,5.10
2022-10-09T06:34:35.705Z,4.70
2022-10-09T06:45:35.574Z,4.50
2022-10-09T06:56:35.447Z,4.50
2022-10-09T07:07:35.377Z,4.90
2022-10-09T07:18:35.225Z,3.70
2022-10-09T07:29:35.103Z,4.20
2022-10-09T07:40:34.957Z,5.40
2022-10-09T07:51:34.848Z,4.80
2022-10-09T08:02:34.807Z,5.00
2022-10-09T08:13:34.607Z,5.60
2022-10-09T08:24:34.509Z,3.80
2022-10-09T08:35:34.760Z,3.40
2022-10-09T08:46:34.341Z,3.60
2022-10-09T08:57:34.097Z,4.30
2022-10-09T09:08:33.970Z,4.10
2022-10-09T09:19:33.872Z,3.20
2022-10-09T09:30:33.727Z,1.60
2022-10-09T09:41:34.606Z,1.50
2022-10-09T09:52:33.479Z,1.80
2022-10-09T10:03:33.360Z,1.60
2022-10-09T10:14:33.231Z,1.80
2022-10-09T10:25:33.131Z,1.80
2022-10-09T10:36:33.021Z,1.20
2022-10-09T10:47:32.867Z,1.70
2022-10-09T10:58:32.761Z,1.80
2022-10-09T11:09:32.638Z,1.60
2022-10-09T11:20:32.517Z,1.70
2022-10-09T11:31:32.454Z,1.30
2022-10-09T11:42:32.272Z,1.30
2022-10-09T11:53:32.130Z,1.10
2022-10-09T12:04:53.500Z,1.50
2022-10-09T12:15:31.941Z,1.40
2022-10-09T12:26:31.771Z,1.90
2022-10-09T12:37:31.634Z,1.70
2022-10-09T12:48:31.520Z,1.30
2022-10-09T12:59:31.387Z,1.70
2022-10-09T13:10:31.301Z,1.60
2022-10-09T13:21:34.312Z,1.80
2022-10-09T13:32:31.056Z,2.00
2022-10-09T13:43:30.894Z,1.70
2022-10-09T13:54:30.770Z,1.20
2022-10-09T14:05:30.642Z,2.00
2022-10-09T14:16:30.518Z,1.70
2022-10-09T14:27:30.493Z,0.90
2022-10-09T14:38:31.266Z,2.00
2022-10-09T14:49:30.178Z,1.50
2022-10-09T15:00:30.031Z,1.30
2022-10-09T15:11:29.895Z,1.70
2022-10-09T15:22:29.792Z,1.40
2022-10-09T15:33:29.660Z,1.70
2022-10-09T15:44:29.521Z,1.40
2022-10-09T15:55:29.418Z,1.20
2022-10-09T16:06:29.279Z,1.20
2022-10-09T16:17:29.182Z,1.50
2022-10-09T16:28:29.102Z,1.70
2022-10-09T16:39:28.933Z,2.20
2022-10-09T16:50:28.804Z,1.80
2022-10-09T17:01:28.677Z,1.90
2022-10-09T17:12:28.550Z,1.50
2022-10-09T17:23:28.428Z,1.70
2022-10-09T17:34:28.315Z,2.10
2022-10-09T17:45:28.244Z,2.10
2022-10-09T17:56:28.053Z,2.20
2022-10-09T18:07:27.933Z,3.10
2022-10-09T18:18:27.823Z,2.00
2022-10-09T18:29:27.711Z,2.10
2022-10-09T18:40:27.607Z,2.30
2022-10-09T18:51:27.440Z,1.80
2022-10-09T19:02:27.359Z,1.90
2022-10-09T19:13:27.194Z,2.10
2022-10-09T19:24:29.155Z,1.80
2022-10-09T19:35:26.963Z,1.70
2022-10-09T19:46:26.826Z,3.30
2022-10-09T19:57:26.787Z,1.40
2022-10-09T20:08:26.580Z,1.80
2022-10-09T20:19:26.450Z,2.00
2022-10-09T20:30:26.325Z,2.00
2022-10-09T20:41:26.356Z,2.00
2022-10-09T20:52:26.144Z,2.30
